createdAt,value
2023-03-18T00:00:47.424Z,53.83
2023-03-18T00:03:18.808Z,54.05
2023-03-18T00:05:46.898Z,53.70
2023-03-18T00:08:14.735Z,53.67
2023-03-18T00:10:42.475Z,53.61
2023-03-18T00:13:10.854Z,53.54
2023-03-18T00:15:38.783Z,53.50
2023-03-18T00:18:06.793Z,53.49
2023-03-18T00:20:40.597Z,53.68
2023-03-18T00:23:08.839Z,53.84
2023-03-18T00:25:36.958Z,53.68
2023-03-18T00:28:04.816Z,53.99
2023-03-18T00:30:33.227Z,53.75
2023-03-18T00:33:01.210Z,53.73
2023-03-18T00:35:30.860Z,53.84
2023-03-18T00:37:59.044Z,54.06
2023-03-18T00:40:43.458Z,54.05
2023-03-18T00:43:13.005Z,54.32
2023-03-18T00:45:40.990Z,54.26
2023-03-18T00:48:09.257Z,54.28
2023-03-18T00:50:37.216Z,54.05
2023-03-18T00:53:05.296Z,54.15
2023-03-18T00:55:33.050Z,54.05
2023-03-18T00:58:00.819Z,54.17
2023-03-18T01:00:29.107Z,53.98
2023-03-18T01:02:56.885Z,53.95
2023-03-18T01:05:24.929Z,53.91
2023-03-18T01:07:53.310Z,53.97
2023-03-18T01:10:20.968Z,53.91
2023-03-18T01:12:48.746Z,54.13
2023-03-18T01:15:17.318Z,54.08
2023-03-18T01:17:45.701Z,53.98
2023-03-18T01:20:13.465Z,54.17
2023-03-18T01:22:42.384Z,54.11
2023-03-18T01:25:10.116Z,54.18
2023-03-18T01:27:38.292Z,54.27
2023-03-18T01:30:06.054Z,54.20
2023-03-18T01:32:34.648Z,54.54
2023-03-18T01:35:02.407Z,54.40
2023-03-18T01:37:31.692Z,54.43
2023-03-18T01:39:59.355Z,54.58
2023-03-18T01:42:27.019Z,54.74
2023-03-18T01:44:54.683Z,54.72
2023-03-18T01:47:22.340Z,54.63
2023-03-18T01:49:50.313Z,54.72
2023-03-18T01:52:18.377Z,54.84
2023-03-18T01:54:46.039Z,54.80
2023-03-18T01:57:13.805Z,54.94
2023-03-18T01:59:41.573Z,54.95
2023-03-18T02:02:09.432Z,55.04
2023-03-18T02:04:37.198Z,55.14
2023-03-18T02:07:04.860Z,55.20
2023-03-18T02:09:32.733Z,55.06
2023-03-18T02:12:00.389Z,55.40
2023-03-18T02:14:35.091Z,55.48
2023-03-18T02:17:02.962Z,55.25
2023-03-18T02:19:30.860Z,55.43
2023-03-18T02:21:58.516Z,55.40
2023-03-18T02:24:26.278Z,55.62
2023-03-18T02:26:54.040Z,55.47
2023-03-18T02:29:21.911Z,55.50
2023-03-18T02:31:49.569Z,55.82
2023-03-18T02:34:17.637Z,55.66
2023-03-18T02:36:45.316Z,55.77
2023-03-18T02:39:13.170Z,56.07
2023-03-18T02:41:40.838Z,56.12
2023-03-18T02:44:08.985Z,55.90
2023-03-18T02:46:36.765Z,56.11
2023-03-18T02:49:04.869Z,56.12
2023-03-18T02:51:32.615Z,56.16
2023-03-18T02:54:00.367Z,56.12
2023-03-18T02:56:28.031Z,56.41
2023-03-18T02:58:55.910Z,56.20
2023-03-18T03:01:23.819Z,55.89
2023-03-18T03:03:51.629Z,56.23
2023-03-18T03:06:19.394Z,56.40
2023-03-18T03:08:47.158Z,56.21
2023-03-18T03:11:14.997Z,55.99
2023-03-18T03:13:42.685Z,56.04
2023-03-18T03:16:11.017Z,56.30
2023-03-18T03:18:38.829Z,56.21
2023-03-18T03:21:06.797Z,56.80
2023-03-18T03:23:34.561Z,56.70
2023-03-18T03:26:02.940Z,56.57
2023-03-18T03:28:30.981Z,56.49
2023-03-18T03:30:58.704Z,56.46
2023-03-18T03:33:26.553Z,56.68
2023-03-18T03:35:54.361Z,56.78
2023-03-18T03:38:23.295Z,56.65
2023-03-18T03:40:51.675Z,56.86
2023-03-18T03:43:19.337Z,56.97
2023-03-18T03:45:46.994Z,56.97
2023-03-18T03:48:14.666Z,56.62
2023-03-18T03:50:42.424Z,56.84
2023-03-18T03:53:10.623Z,56.65
2023-03-18T03:55:38.462Z,56.77
2023-03-18T03:58:06.121Z,56.61
2023-03-18T04:00:33.968Z,56.84
2023-03-18T04:03:01.894Z,56.89
2023-03-18T04:05:29.926Z,56.78
2023-03-18T04:08:00.354Z,56.41
2023-03-18T04:10:28.447Z,56.54
2023-03-18T04:12:56.193Z,56.57
2023-03-18T04:15:23.956Z,56.38
2023-03-18T04:17:51.713Z,56.38
2023-03-18T04:20:19.397Z,56.37
2023-03-18T04:22:47.144Z,56.29
2023-03-18T04:25:17.978Z,56.19
2023-03-18T04:27:46.059Z,56.29
2023-03-18T04:30:13.838Z,56.27
2023-03-18T04:32:41.608Z,56.24
2023-03-18T04:35:09.759Z,56.18
2023-03-18T04:37:37.827Z,56.21
2023-03-18T04:40:06.410Z,56.21
2023-03-18T04:42:34.165Z,56.14
2023-03-18T04:45:02.236Z,56.11
2023-03-18T04:47:30.213Z,56.02
2023-03-18T04:49:57.869Z,56.03
2023-03-18T04:52:26.043Z,55.98
2023-03-18T04:54:53.811Z,55.98
2023-03-18T04:57:21.774Z,55.97
2023-03-18T04:59:49.539Z,55.93
2023-03-18T05:02:17.303Z,55.89
2023-03-18T05:04:45.794Z,55.84
2023-03-18T05:07:14.881Z,55.80
2023-03-18T05:09:42.745Z,55.88
2023-03-18T05:12:10.406Z,55.81
2023-03-18T05:14:38.070Z,55.82
2023-03-18T05:17:05.830Z,55.74
2023-03-18T05:19:33.599Z,55.68
2023-03-18T05:22:01.258Z,55.65
2023-03-18T05:24:29.022Z,55.67
2023-03-18T05:26:57.573Z,55.64
2023-03-18T05:29:25.375Z,55.61
2023-03-18T05:31:53.068Z,55.52
2023-03-18T05:34:20.799Z,55.55
2023-03-18T05:36:49.288Z,55.50
2023-03-18T05:39:17.040Z,55.51
2023-03-18T05:41:45.094Z,55.47
2023-03-18T05:44:12.880Z,55.47
2023-03-18T05:46:40.545Z,55.44
2023-03-18T05:49:09.116Z,55.60
2023-03-18T05:51:37.909Z,55.54
2023-03-18T05:54:05.572Z,55.39
2023-03-18T05:56:33.331Z,55.35
2023-03-18T05:59:01.110Z,55.27
2023-03-18T06:01:31.012Z,55.20
2023-03-18T06:03:59.391Z,55.12
2023-03-18T06:06:27.084Z,55.04
2023-03-18T06:08:56.457Z,54.93
2023-03-18T06:11:24.633Z,54.98
2023-03-18T06:13:52.601Z,54.91
2023-03-18T06:16:20.699Z,54.86
2023-03-18T06:18:49.359Z,54.63
2023-03-18T06:21:17.121Z,54.63
2023-03-18T06:23:45.405Z,54.48
2023-03-18T06:26:13.364Z,54.52
2023-03-18T06:28:41.442Z,54.24
2023-03-18T06:31:11.014Z,54.09
2023-03-18T06:33:38.911Z,53.96
2023-03-18T06:36:06.706Z,53.97
2023-03-18T06:38:34.952Z,54.09
2023-03-18T06:41:02.921Z,53.82
2023-03-18T06:43:31.297Z,53.66
2023-03-18T06:45:59.817Z,53.66
2023-03-18T06:48:28.563Z,53.55
2023-03-18T06:50:56.640Z,53.40
2023-03-18T06:53:24.298Z,53.11
2023-03-18T06:55:52.166Z,52.91
2023-03-18T06:58:19.834Z,52.99
2023-03-18T07:00:47.970Z,52.91
2023-03-18T07:03:16.073Z,52.76
2023-03-18T07:05:43.844Z,52.48
2023-03-18T07:08:11.703Z,52.60
2023-03-18T07:10:39.776Z,52.18
2023-03-18T07:13:09.069Z,51.97
2023-03-18T07:15:36.930Z,51.96
2023-03-18T07:18:05.316Z,51.67
2023-03-18T07:20:33.488Z,51.09
2023-03-18T07:23:01.561Z,51.19
2023-03-18T07:25:30.320Z,50.35
2023-03-18T07:27:59.856Z,50.48
2023-03-18T07:30:27.726Z,50.32
2023-03-18T07:32:56.031Z,49.79
2023-03-18T07:35:24.965Z,49.13
2023-03-18T07:37:52.753Z,49.71
2023-03-18T07:40:21.143Z,48.89
2023-03-18T07:42:51.667Z,48.76
2023-03-18T07:45:19.424Z,48.11
2023-03-18T07:47:47.514Z,48.02
2023-03-18T07:50:15.376Z,48.07
2023-03-18T07:52:43.204Z,47.74
2023-03-18T07:55:12.297Z,47.70
2023-03-18T07:57:40.193Z,46.48
2023-03-18T08:00:08.167Z,47.05
2023-03-18T08:02:36.432Z,46.48
2023-03-18T08:05:04.456Z,46.00
2023-03-18T08:07:32.272Z,46.96
2023-03-18T08:10:00.666Z,46.14
2023-03-18T08:12:38.250Z,46.27
2023-03-18T08:15:12.969Z,45.20
2023-03-18T08:17:40.756Z,45.40
2023-03-18T08:20:08.494Z,45.26
2023-03-18T08:22:36.261Z,45.96
2023-03-18T08:25:04.647Z,45.61
2023-03-18T08:27:33.220Z,45.00
2023-03-18T08:30:03.527Z,44.61
2023-03-18T08:32:32.883Z,44.56
2023-03-18T08:35:01.645Z,44.89
2023-03-18T08:37:29.505Z,44.76
2023-03-18T08:39:57.367Z,45.18
2023-03-18T08:42:25.236Z,44.09
2023-03-18T08:44:53.000Z,43.78
2023-03-18T08:47:21.586Z,44.42
2023-03-18T08:49:51.386Z,44.02
2023-03-18T08:52:19.468Z,44.06
2023-03-18T08:54:48.058Z,43.52
2023-03-18T08:57:16.356Z,43.15
2023-03-18T08:59:44.089Z,42.63
2023-03-18T09:02:11.867Z,43.00
2023-03-18T09:04:39.823Z,42.65
2023-03-18T09:07:07.593Z,42.73
2023-03-18T09:09:43.740Z,42.01
2023-03-18T09:12:15.111Z,41.39
2023-03-18T09:14:44.321Z,41.42
2023-03-18T09:17:12.676Z,40.51
2023-03-18T09:19:40.546Z,41.45
2023-03-18T09:22:09.226Z,41.62
2023-03-18T09:24:36.890Z,40.53
2023-03-18T09:27:04.749Z,41.05
2023-03-18T09:29:33.111Z,41.08
2023-03-18T09:32:00.896Z,40.36
2023-03-18T09:34:28.657Z,39.62
2023-03-18T09:36:58.441Z,40.08
2023-03-18T09:39:26.333Z,39.96
2023-03-18T09:41:54.302Z,40.51
2023-03-18T09:44:23.017Z,40.07
2023-03-18T09:46:50.919Z,40.34
2023-03-18T09:49:18.958Z,39.67
2023-03-18T09:51:47.001Z,39.04
2023-03-18T09:54:14.760Z,39.80
2023-03-18T09:56:42.531Z,39.91
2023-03-18T09:59:10.697Z,39.83
2023-03-18T10:01:39.905Z,39.15
2023-03-18T10:04:07.791Z,37.71
2023-03-18T10:06:36.244Z,37.35
2023-03-18T10:09:04.009Z,37.42
2023-03-18T10:11:32.396Z,37.58
2023-03-18T10:14:00.149Z,38.06
2023-03-18T10:16:28.176Z,37.18
2023-03-18T10:18:55.985Z,36.15
2023-03-18T10:21:23.851Z,36.12
2023-03-18T10:23:51.927Z,37.86
2023-03-18T10:26:19.999Z,36.27
2023-03-18T10:28:49.393Z,37.58
2023-03-18T10:31:17.240Z,35.73
2023-03-18T10:33:45.242Z,36.53
2023-03-18T10:36:13.597Z,37.10
2023-03-18T10:38:41.381Z,36.89
2023-03-18T10:41:09.141Z,35.15
2023-03-18T10:43:36.809Z,36.42
2023-03-18T10:46:04.692Z,34.66
2023-03-18T10:48:32.534Z,36.73
2023-03-18T10:51:00.314Z,35.73
2023-03-18T10:53:28.078Z,34.67
2023-03-18T10:55:57.548Z,35.33
2023-03-18T10:58:25.395Z,34.87
2023-03-18T11:00:53.103Z,34.74
2023-03-18T11:03:21.270Z,35.31
2023-03-18T11:05:48.937Z,34.79
2023-03-18T11:08:16.697Z,34.76
2023-03-18T11:10:44.367Z,35.81
2023-03-18T11:13:12.224Z,34.46
2023-03-18T11:15:40.705Z,35.33
2023-03-18T11:18:08.776Z,34.51
2023-03-18T11:20:43.247Z,35.30
2023-03-18T11:23:13.829Z,35.13
2023-03-18T11:25:41.796Z,34.93
2023-03-18T11:28:09.769Z,33.74
2023-03-18T11:30:37.634Z,35.04
2023-03-18T11:33:05.513Z,35.29
2023-03-18T11:35:33.480Z,34.94
2023-03-18T11:38:01.230Z,36.04
2023-03-18T11:40:29.448Z,35.35
2023-03-18T11:42:57.881Z,35.66
2023-03-18T11:45:26.469Z,34.84
2023-03-18T11:47:54.637Z,34.36
2023-03-18T11:50:23.950Z,34.14
2023-03-18T11:52:52.520Z,33.75
2023-03-18T11:55:20.190Z,34.71
2023-03-18T11:57:48.051Z,34.89
2023-03-18T12:00:17.859Z,34.12
2023-03-18T12:02:45.628Z,34.62
2023-03-18T12:05:14.024Z,34.06
2023-03-18T12:07:43.109Z,33.61
2023-03-18T12:10:13.224Z,34.25
2023-03-18T12:12:41.088Z,35.14
2023-03-18T12:15:08.850Z,33.89
2023-03-18T12:17:36.621Z,34.46
2023-03-18T12:20:04.789Z,33.97
2023-03-18T12:22:32.561Z,33.07
2023-03-18T12:25:00.317Z,34.21
2023-03-18T12:27:28.081Z,33.68
2023-03-18T12:29:55.952Z,35.01
2023-03-18T12:32:23.720Z,34.68
2023-03-18T12:34:51.480Z,34.57
2023-03-18T12:37:19.550Z,33.73
2023-03-18T12:39:48.583Z,33.91
2023-03-18T12:42:16.307Z,32.43
2023-03-18T12:44:44.170Z,33.71
2023-03-18T12:47:11.848Z,34.04
2023-03-18T12:49:39.598Z,34.28
2023-03-18T12:52:07.981Z,33.96
2023-03-18T12:54:35.638Z,33.36
2023-03-18T12:57:03.718Z,34.63
2023-03-18T12:59:31.483Z,33.36
2023-03-18T13:01:59.888Z,33.08
2023-03-18T13:04:28.644Z,33.27
2023-03-18T13:06:56.608Z,33.92
2023-03-18T13:09:24.685Z,34.04
2023-03-18T13:11:52.955Z,33.48
2023-03-18T13:14:21.948Z,33.74
2023-03-18T13:16:50.262Z,33.89
2023-03-18T13:19:18.801Z,33.31
2023-03-18T13:21:46.840Z,33.57
2023-03-18T13:24:15.152Z,33.60
2023-03-18T13:26:43.022Z,32.69
2023-03-18T13:29:10.880Z,32.79
2023-03-18T13:31:38.749Z,32.81
2023-03-18T13:34:06.424Z,32.83
2023-03-18T13:36:34.171Z,32.24
2023-03-18T13:39:02.343Z,30.84
2023-03-18T13:41:32.769Z,32.74
2023-03-18T13:44:00.743Z,33.13
2023-03-18T13:46:29.083Z,31.28
2023-03-18T13:48:56.998Z,31.19
2023-03-18T13:51:24.763Z,32.56
2023-03-18T13:53:52.822Z,32.32
2023-03-18T13:56:20.584Z,32.57
2023-03-18T13:58:48.554Z,32.24
2023-03-18T14:01:16.365Z,32.72
2023-03-18T14:03:44.472Z,32.08
2023-03-18T14:06:14.017Z,32.63
2023-03-18T14:08:44.136Z,32.32
2023-03-18T14:11:12.086Z,32.09
2023-03-18T14:13:39.849Z,32.69
2023-03-18T14:16:07.679Z,31.74
2023-03-18T14:18:37.842Z,32.34
2023-03-18T14:21:06.113Z,32.19
2023-03-18T14:23:33.760Z,32.22
2023-03-18T14:26:02.376Z,32.27
2023-03-18T14:28:30.434Z,32.04
2023-03-18T14:30:58.310Z,32.35
2023-03-18T14:33:26.059Z,32.01
2023-03-18T14:35:54.770Z,32.68
2023-03-18T14:38:22.512Z,32.17
2023-03-18T14:40:51.711Z,31.11
2023-03-18T14:43:19.578Z,31.38
2023-03-18T14:45:49.707Z,32.25
2023-03-18T14:48:17.829Z,32.63
2023-03-18T14:50:45.522Z,31.83
2023-03-18T14:53:14.012Z,32.58
2023-03-18T14:55:41.776Z,32.64
2023-03-18T14:58:09.436Z,31.93
2023-03-18T15:00:37.198Z,32.32
2023-03-18T15:03:05.019Z,32.10
2023-03-18T15:05:33.276Z,32.15
2023-03-18T15:08:01.227Z,32.22
2023-03-18T15:10:28.985Z,32.54
2023-03-18T15:12:56.737Z,30.50
2023-03-18T15:15:24.602Z,31.93
2023-03-18T15:17:52.784Z,32.44
2023-03-18T15:20:20.542Z,32.41
2023-03-18T15:22:48.612Z,29.82
2023-03-18T15:25:16.785Z,31.94
2023-03-18T15:27:45.987Z,32.02
2023-03-18T15:30:14.673Z,31.05
2023-03-18T15:32:42.448Z,30.35
2023-03-18T15:35:10.579Z,30.55
2023-03-18T15:37:40.932Z,29.66
2023-03-18T15:40:08.661Z,30.80
2023-03-18T15:42:36.665Z,29.59
2023-03-18T15:45:05.375Z,30.61
2023-03-18T15:47:33.116Z,30.54
2023-03-18T15:50:00.787Z,30.91
2023-03-18T15:52:28.543Z,30.87
2023-03-18T15:54:56.509Z,30.86
2023-03-18T15:57:24.174Z,30.86
2023-03-18T15:59:51.832Z,30.81
2023-03-18T16:02:19.688Z,31.61
2023-03-18T16:04:48.689Z,31.86
2023-03-18T16:07:16.455Z,31.71
2023-03-18T16:09:45.665Z,32.19
2023-03-18T16:12:13.417Z,32.11
2023-03-18T16:14:42.128Z,32.22
2023-03-18T16:17:10.374Z,32.67
2023-03-18T16:19:38.561Z,32.54
2023-03-18T16:22:06.521Z,33.07
2023-03-18T16:24:34.292Z,33.23
2023-03-18T16:27:02.158Z,33.41
2023-03-18T16:29:30.073Z,33.49
2023-03-18T16:31:57.776Z,33.43
2023-03-18T16:34:25.547Z,33.92
2023-03-18T16:36:53.754Z,33.64
2023-03-18T16:39:21.584Z,33.78
2023-03-18T16:41:50.689Z,33.77
2023-03-18T16:44:18.573Z,34.04
2023-03-18T16:46:46.413Z,34.25
2023-03-18T16:49:14.175Z,34.34
2023-03-18T16:51:41.951Z,34.52
2023-03-18T16:54:10.420Z,34.68
2023-03-18T16:56:38.286Z,34.91
2023-03-18T16:59:06.166Z,35.07
2023-03-18T17:01:35.793Z,35.39
2023-03-18T17:04:04.193Z,35.42
2023-03-18T17:06:32.020Z,35.22
2023-03-18T17:08:59.679Z,35.44
2023-03-18T17:11:27.641Z,35.78
2023-03-18T17:13:56.531Z,35.86
2023-03-18T17:16:27.893Z,35.94
2023-03-18T17:18:56.053Z,36.07
2023-03-18T17:21:24.022Z,36.18
2023-03-18T17:23:51.788Z,36.39
2023-03-18T17:26:20.169Z,36.69
2023-03-18T17:28:47.954Z,36.78
2023-03-18T17:31:16.115Z,36.85
2023-03-18T17:33:43.773Z,36.94
2023-03-18T17:36:11.530Z,37.09
2023-03-18T17:38:39.501Z,37.24
2023-03-18T17:41:07.505Z,37.43
2023-03-18T17:43:35.224Z,37.59
2023-03-18T17:46:03.959Z,37.70
2023-03-18T17:48:31.663Z,37.96
2023-03-18T17:50:59.439Z,38.06
2023-03-18T17:53:27.104Z,38.31
2023-03-18T17:55:54.972Z,38.37
2023-03-18T17:58:22.626Z,38.52
2023-03-18T18:00:50.495Z,38.60
2023-03-18T18:03:18.668Z,38.72
2023-03-18T18:05:46.431Z,39.06
2023-03-18T18:08:14.516Z,39.05
2023-03-18T18:10:42.271Z,39.14
2023-03-18T18:13:10.234Z,39.19
2023-03-18T18:15:38.037Z,39.43
2023-03-18T18:18:06.686Z,39.51
2023-03-18T18:20:34.653Z,39.79
2023-03-18T18:23:03.445Z,39.94
2023-03-18T18:25:32.447Z,39.99
2023-03-18T18:28:00.510Z,40.07
2023-03-18T18:30:28.894Z,39.99
2023-03-18T18:32:56.716Z,40.20
2023-03-18T18:35:25.845Z,40.25
2023-03-18T18:37:53.613Z,40.29
2023-03-18T18:40:21.273Z,40.41
2023-03-18T18:42:49.036Z,40.47
2023-03-18T18:45:16.815Z,40.51
2023-03-18T18:47:44.475Z,40.60
2023-03-18T18:50:12.132Z,40.86
2023-03-18T18:52:40.406Z,41.00
2023-03-18T18:55:10.622Z,40.98
2023-03-18T18:57:38.390Z,41.00
2023-03-18T19:00:11.684Z,41.02
2023-03-18T19:02:39.347Z,41.19
2023-03-18T19:05:08.332Z,41.32
2023-03-18T19:07:36.405Z,41.28
2023-03-18T19:10:05.894Z,41.30
2023-03-18T19:12:39.170Z,41.37
2023-03-18T19:15:07.282Z,41.21
2023-03-18T19:17:35.248Z,41.31
2023-03-18T19:20:05.376Z,41.41
2023-03-18T19:22:35.178Z,41.55
2023-03-18T19:25:05.506Z,41.48
2023-03-18T19:27:34.495Z,41.64
2023-03-18T19:30:05.942Z,41.50
2023-03-18T19:32:33.936Z,41.73
2023-03-18T19:35:01.984Z,41.66
2023-03-18T19:37:29.756Z,41.83
2023-03-18T19:39:57.723Z,41.67
2023-03-18T19:42:25.801Z,41.80
2023-03-18T19:44:53.552Z,41.73
2023-03-18T19:47:21.322Z,41.79
2023-03-18T19:49:49.185Z,41.97
2023-03-18T19:52:17.455Z,41.93
2023-03-18T19:54:45.526Z,42.05
2023-03-18T19:57:13.188Z,42.03
2023-03-18T19:59:41.158Z,42.13
2023-03-18T20:02:09.126Z,42.05
2023-03-18T20:04:37.695Z,42.19
2023-03-18T20:07:06.605Z,42.21
2023-03-18T20:09:34.362Z,42.18
2023-03-18T20:12:05.872Z,42.21
2023-03-18T20:14:38.370Z,42.36
2023-03-18T20:17:06.258Z,42.40
2023-03-18T20:19:34.025Z,42.48
2023-03-18T20:22:01.686Z,42.49
2023-03-18T20:24:29.962Z,42.68
2023-03-18T20:26:57.744Z,42.58
2023-03-18T20:29:26.311Z,42.76
2023-03-18T20:31:54.647Z,42.55
2023-03-18T20:34:23.388Z,42.61
2023-03-18T20:36:51.445Z,42.61
2023-03-18T20:39:19.217Z,42.51
2023-03-18T20:41:46.978Z,42.60
2023-03-18T20:44:14.737Z,42.58
2023-03-18T20:46:43.116Z,42.73
2023-03-18T20:49:10.778Z,42.77
2023-03-18T20:51:41.001Z,42.70
2023-03-18T20:54:09.685Z,42.82
2023-03-18T20:56:37.653Z,42.75
2023-03-18T20:59:05.629Z,42.83
2023-03-18T21:01:33.372Z,42.78
2023-03-18T21:04:02.567Z,42.76
2023-03-18T21:06:30.657Z,42.89
2023-03-18T21:08:58.319Z,42.89
2023-03-18T21:11:27.721Z,42.99
2023-03-18T21:13:55.383Z,43.02
2023-03-18T21:16:24.081Z,43.03
2023-03-18T21:18:51.805Z,43.09
2023-03-18T21:21:19.698Z,43.19
2023-03-18T21:23:47.461Z,43.25
2023-03-18T21:26:15.226Z,43.24
2023-03-18T21:28:42.989Z,43.32
2023-03-18T21:31:10.868Z,43.37
2023-03-18T21:33:40.218Z,43.36
2023-03-18T21:36:09.209Z,43.42
2023-03-18T21:38:37.119Z,43.49
2023-03-18T21:41:04.782Z,43.42
2023-03-18T21:43:32.440Z,43.44
2023-03-18T21:46:00.252Z,43.53
2023-03-18T21:48:28.077Z,43.54
2023-03-18T21:50:55.936Z,43.62
2023-03-18T21:53:24.415Z,43.74
2023-03-18T21:55:52.796Z,43.78
2023-03-18T21:58:20.774Z,43.76
2023-03-18T22:00:48.429Z,43.83
2023-03-18T22:03:16.197Z,43.90
2023-03-18T22:05:44.059Z,43.91
2023-03-18T22:08:12.135Z,43.96
2023-03-18T22:10:39.808Z,44.02
2023-03-18T22:13:11.686Z,44.05
2023-03-18T22:15:46.876Z,44.07
2023-03-18T22:18:19.810Z,44.06
2023-03-18T22:20:49.704Z,44.05
2023-03-18T22:23:17.457Z,44.08
2023-03-18T22:25:45.423Z,44.15
2023-03-18T22:28:13.393Z,44.16
2023-03-18T22:30:42.310Z,44.15
2023-03-18T22:33:10.103Z,44.17
2023-03-18T22:35:38.038Z,44.20
2023-03-18T22:38:06.490Z,44.28
2023-03-18T22:40:34.777Z,44.31
2023-03-18T22:43:02.942Z,44.30
2023-03-18T22:45:30.719Z,44.32
2023-03-18T22:47:58.693Z,44.34
2023-03-18T22:50:26.756Z,44.37
2023-03-18T22:52:54.725Z,44.36
2023-03-18T22:55:22.485Z,44.41
2023-03-18T22:57:50.245Z,44.53
2023-03-18T23:00:19.341Z,44.50
2023-03-18T23:02:47.125Z,44.53
2023-03-18T23:05:14.868Z,44.57
2023-03-18T23:07:42.631Z,44.49
2023-03-18T23:10:10.800Z,44.57
2023-03-18T23:12:38.467Z,44.55
2023-03-18T23:15:06.541Z,44.54
2023-03-18T23:17:34.301Z,44.64
2023-03-18T23:20:02.065Z,44.77
2023-03-18T23:22:29.728Z,44.69
2023-03-18T23:24:57.395Z,44.74
2023-03-18T23:27:25.049Z,44.78
2023-03-18T23:29:52.811Z,44.82
2023-03-18T23:32:20.476Z,44.82
2023-03-18T23:34:48.137Z,44.96
2023-03-18T23:37:15.909Z,44.99
2023-03-18T23:39:44.793Z,45.12
2023-03-18T23:42:12.658Z,45.13
2023-03-18T23:44:40.525Z,45.21
2023-03-18T23:47:08.185Z,45.28
2023-03-18T23:49:36.155Z,45.43
2023-03-18T23:52:03.929Z,45.45
2023-03-18T23:54:33.015Z,45.42
2023-03-18T23:57:01.191Z,45.47
2023-03-18T23:59:28.856Z,45.50
